Time;durP1;ratioP1;P1;durP2;ratioP2;P2;SDS_P1;SDS_P2;PMS_P1;PMS_P2;Temp;Humidity;BMP_temperature;BMP_pressure;BME280_temperature;BME280_humidity;BME280_pressure;Samples;Min_cycle;Max_cycle;Signal;HPM_P1;HPM_P2
2023/06/05 00:02:49;;;;;;;;;;;;;;;19.58;44.62;96562.59;6172413;28;20396;-74
2023/06/05 00:05:52;;;;;;;;;;;;;;;19.55;44.77;96554.94;6172369;28;19932;-74
2023/06/05 00:08:55;;;;;;;;;;;;;;;19.56;44.13;96557.44;6138823;28;20335;-73
2023/06/05 00:11:58;;;;;;;;;;;;;;;19.55;44.69;96550.41;6172193;28;20384;-72
2023/06/05 00:15:02;;;;;;;;;;;;;;;19.53;44.99;96560.41;6172300;28;20314;-73
2023/06/05 00:18:06;;;;;;;;;;;;;;;19.53;44.63;96560.41;6155196;28;19933;-74
2023/06/05 00:21:09;;;;;;;;;;;;;;;19.54;44.66;96572.78;6172320;28;20008;-74
2023/06/05 00:24:12;;;;;;;;;;;;;;;19.54;43.87;96567.44;6172308;28;19926;-73
2023/06/05 00:27:15;;;;;;;;;;;;;;;19.57;44.18;96572.44;6172129;28;19926;-75
2023/06/05 00:30:18;;;;;;;;;;;;;;;19.58;45.23;96576.78;6164314;28;20013;-73
2023/06/05 00:33:21;;;;;;;;;;;;;;;19.63;44.59;96571.78;6152933;29;19926;-74
2023/06/05 00:36:25;;;;;;;;;;;;;;;19.68;43.80;96580.19;6152579;29;19927;-73
2023/06/05 00:39:28;;;;;;;;;;;;;;;19.80;44.29;96582.53;6152458;29;19926;-74
2023/06/05 00:42:31;;;;;;;;;;;;;;;19.83;44.61;96571.53;6152566;29;19966;-75
2023/06/05 00:45:35;;;;;;;;;;;;;;;19.92;45.31;96575.88;6152280;29;19927;-74
2023/06/05 00:48:38;;;;;;;;;;;;;;;19.91;44.71;96575.03;6152421;29;19926;-74
2023/06/05 00:51:42;;;;;;;;;;;;;;;19.93;45.10;96585.56;6152228;29;19927;-73
2023/06/05 00:54:45;;;;;;;;;;;;;;;20.00;44.83;96593.75;6152359;29;20025;-73
2023/06/05 00:57:49;;;;;;;;;;;;;;;20.07;44.68;96590.25;6135320;28;20056;-72
2023/06/05 01:00:53;;;;;;;;;;;;;;;20.14;44.69;96590.44;6152312;29;20295;-73
2023/06/05 01:03:58;;;;;;;;;;;;;;;20.18;44.99;96581.94;6120642;29;19926;-73
2023/06/05 01:07:01;;;;;;;;;;;;;;;20.31;44.87;96592.09;6153653;29;19933;-72
2023/06/05 01:10:05;;;;;;;;;;;;;;;20.38;44.57;96586.91;6139512;29;20118;-74
2023/06/05 01:13:21;;;;;;;;;;;;;;;20.47;45.00;96583.25;6157676;29;20363;-72
2023/06/05 01:16:30;;;;;;;;;;;;;;;20.55;44.72;96588.63;6139070;29;20312;-74
2023/06/05 01:19:34;;;;;;;;;;;;;;;20.61;44.69;96587.13;6154312;29;19926;-73
2023/06/05 01:22:37;;;;;;;;;;;;;;;20.65;44.49;96582.25;6137385;29;19927;-72
2023/06/05 01:25:43;;;;;;;;;;;;;;;20.73;44.40;96584.91;6153517;29;19926;-74
2023/06/05 01:28:47;;;;;;;;;;;;;;;20.76;44.89;96585.41;6136087;29;19933;-74
2023/06/05 01:31:52;;;;;;;;;;;;;;;20.81;44.35;96588.41;6157540;28;19925;-73
2023/06/05 01:34:58;;;;;;;;;;;;;;;20.87;44.36;96576.19;6176113;28;20024;-73
2023/06/05 01:38:02;;;;;;;;;;;;;;;20.90;44.23;96578.53;6158518;28;19934;-74
2023/06/05 01:41:05;;;;;;;;;;;;;;;20.98;44.44;96575.84;6156364;28;19926;-74
2023/06/05 01:44:08;;;;;;;;;;;;;;;21.07;44.44;96572.13;6175325;28;20342;-74
2023/06/05 01:47:12;;;;;;;;;;;;;;;21.11;44.35;96579.78;6175601;28;19930;-72
2023/06/05 01:50:15;;;;;;;;;;;;;;;21.15;44.20;96583.81;6175513;28;20431;-73
2023/06/05 01:53:19;;;;;;;;;;;;;;;21.23;44.09;96586.44;6175247;28;20392;-74
2023/06/05 01:56:23;;;;;;;;;;;;;;;21.28;44.15;96590.25;6157772;28;20025;-74
2023/06/05 01:59:26;;;;;;;;;;;;;;;21.38;44.25;96600.81;6174886;28;20029;-74
2023/06/05 02:02:29;;;;;;;;;;;;;;;21.50;44.23;96599.41;6174994;28;19937;-73
2023/06/05 02:05:33;;;;;;;;;;;;;;;21.55;44.08;96601.56;6175051;28;19941;-73
2023/06/05 02:08:36;;;;;;;;;;;;;;;21.61;44.19;96589.31;6157621;28;20191;-74
2023/06/05 02:11:42;;;;;;;;;;;;;;;21.66;43.63;96584.28;6157550;28;19922;-74
2023/06/05 02:14:46;;;;;;;;;;;;;;;21.77;44.25;96588.38;6157328;28;20292;-73
2023/06/05 02:17:56;;;;;;;;;;;;;;;21.83;43.79;96582.34;6174505;28;19928;-74
2023/06/05 02:20:59;;;;;;;;;;;;;;;21.87;43.81;96589.81;6140935;28;19926;-74
2023/06/05 02:24:02;;;;;;;;;;;;;;;21.97;43.83;96590.44;6174343;28;19926;-73
2023/06/05 02:27:05;;;;;;;;;;;;;;;22.10;43.82;96599.72;6174173;28;19926;-74
2023/06/05 02:30:08;;;;;;;;;;;;;;;22.15;43.49;96586.63;6164994;28;20371;-74
2023/06/05 02:33:11;;;;;;;;;;;;;;;22.22;43.58;96598.31;6150199;28;20025;-73
2023/06/05 02:36:15;;;;;;;;;;;;;;;22.36;43.78;96605.63;6132664;29;19948;-74
2023/06/05 02:39:18;;;;;;;;;;;;;;;22.44;43.50;96611.91;6149690;29;20296;-72
2023/06/05 02:42:21;;;;;;;;;;;;;;;22.55;43.68;96608.78;6116795;29;20380;-74
2023/06/05 02:45:24;;;;;;;;;;;;;;;22.57;43.95;96620.19;6149550;29;20017;-73
2023/06/05 02:48:27;;;;;;;;;;;;;;;22.73;44.13;96628.09;6149691;29;20390;-74
2023/06/05 02:51:31;;;;;;;;;;;;;;;22.69;43.80;96626.75;6149534;28;20428;-73
2023/06/05 02:54:34;;;;;;;;;;;;;;;22.78;43.91;96636.41;6149173;29;19927;-73
2023/06/05 02:57:48;;;;;;;;;;;;;;;22.89;43.56;96634.31;6149504;29;19933;-73
2023/06/05 03:00:53;;;;;;;;;;;;;;;23.02;43.61;96631.88;6149011;29;19926;-74
2023/06/05 03:03:57;;;;;;;;;;;;;;;23.13;43.93;96639.47;6149261;29;19962;-73
2023/06/05 03:07:03;;;;;;;;;;;;;;;23.26;43.58;96634.28;6131829;29;19922;-74
2023/06/05 03:10:07;;;;;;;;;;;;;;;23.24;43.95;96639.00;6149142;29;19932;-73
2023/06/05 03:13:10;;;;;;;;;;;;;;;23.35;43.95;96643.06;6149049;29;19922;-74
2023/06/05 03:16:13;;;;;;;;;;;;;;;23.45;43.61;96643.63;6131344;29;20011;-74
2023/06/05 03:19:17;;;;;;;;;;;;;;;23.36;43.55;96643.91;6148915;29;20029;-73
2023/06/05 03:22:21;;;;;;;;;;;;;;;23.41;43.24;96644.16;6149103;29;20017;-73
2023/06/05 03:25:24;;;;;;;;;;;;;;;23.54;43.05;96639.81;6149042;28;19928;-73
2023/06/05 03:28:30;;;;;;;;;;;;;;;23.62;42.55;96638.91;6148512;29;19926;-74
2023/06/05 03:31:33;;;;;;;;;;;;;;;23.84;42.05;96642.50;6143384;29;19933;-73
2023/06/05 03:34:36;;;;;;;;;;;;;;;23.91;42.04;96642.56;6147615;29;19926;-73
2023/06/05 03:37:38;;;;;;;;;;;;;;;24.06;41.75;96643.41;6147350;29;20396;-74
2023/06/05 03:40:42;;;;;;;;;;;;;;;24.24;41.25;96642.13;6148518;29;19961;-73
2023/06/05 03:43:46;;;;;;;;;;;;;;;24.35;41.07;96634.38;6148848;29;20018;-73
2023/06/05 03:46:50;;;;;;;;;;;;;;;24.50;40.62;96638.91;6148475;29;19933;-74
2023/06/05 03:49:55;;;;;;;;;;;;;;;24.59;40.53;96643.09;6147293;29;19998;-73
2023/06/05 03:53:03;;;;;;;;;;;;;;;24.77;40.49;96643.50;6148683;29;19933;-74
2023/06/05 03:56:06;;;;;;;;;;;;;;;24.91;39.87;96647.13;6148545;29;20359;-74
2023/06/05 03:59:11;;;;;;;;;;;;;;;25.06;39.78;96642.47;6148051;29;19933;-74
2023/06/05 04:02:14;;;;;;;;;;;;;;;25.25;39.16;96645.50;6148325;29;19982;-74
2023/06/05 04:05:22;;;;;;;;;;;;;;;25.42;38.92;96635.25;6151084;28;19926;-74
2023/06/05 04:08:24;;;;;;;;;;;;;;;25.52;38.48;96647.34;6153154;29;19938;-73
2023/06/05 04:11:28;;;;;;;;;;;;;;;25.70;38.49;96643.28;6136411;29;19969;-74
2023/06/05 04:14:33;;;;;;;;;;;;;;;25.91;37.84;96651.28;6151989;29;19930;-74
2023/06/05 04:17:37;;;;;;;;;;;;;;;26.09;37.46;96647.19;6153243;29;19967;-74
2023/06/05 04:20:39;;;;;;;;;;;;;;;26.32;36.97;96642.28;6136135;29;19934;-73
2023/06/05 04:23:43;;;;;;;;;;;;;;;26.37;37.21;96637.09;6152871;29;20029;-73
2023/06/05 04:26:47;;;;;;;;;;;;;;;26.50;36.65;96638.19;6152912;29;19937;-74
2023/06/05 04:29:52;;;;;;;;;;;;;;;26.58;36.44;96640.69;6136746;28;19926;-73
2023/06/05 04:32:55;;;;;;;;;;;;;;;26.64;36.37;96646.09;6135021;29;19926;-73
2023/06/05 04:35:59;;;;;;;;;;;;;;;26.91;35.56;96640.69;6152709;29;20307;-73
2023/06/05 04:39:14;;;;;;;;;;;;;;;27.09;35.06;96658.97;6134941;29;20018;-74
2023/06/05 04:42:17;;;;;;;;;;;;;;;27.98;33.72;96646.75;6135499;29;20087;-73
2023/06/05 04:45:21;;;;;;;;;;;;;;;29.88;30.79;96654.66;6152745;29;20371;-73
2023/06/05 04:48:23;;;;;;;;;;;;;;;31.60;28.73;96653.16;6152425;29;19926;-74
2023/06/05 04:51:27;;;;;;;;;;;;;;;32.73;28.14;96660.88;6152354;29;20300;-73
2023/06/05 04:54:30;;;;;;;;;;;;;;;35.08;25.24;96664.06;6135211;29;20021;-73
2023/06/05 04:57:33;;;;;;;;;;;;;;;37.28;23.95;96673.19;6152425;29;20459;-74
2023/06/05 05:00:36;;;;;;;;;;;;;;;40.35;21.43;96671.31;6152187;29;20312;-73
2023/06/05 05:03:42;;;;;;;;;;;;;;;42.95;17.81;96676.09;6152206;29;20323;-73
2023/06/05 05:06:47;;;;;;;;;;;;;;;44.63;16.36;96681.03;6152078;29;20021;-73
2023/06/05 05:09:50;;;;;;;;;;;;;;;46.15;15.15;96679.88;6152012;29;19926;-73
2023/06/05 05:12:53;;;;;;;;;;;;;;;48.17;15.08;96683.44;6151842;29;20341;-73
2023/06/05 05:15:56;;;;;;;;;;;;;;;50.09;13.23;96687.50;6151520;28;20346;-74
2023/06/05 05:19:00;;;;;;;;;;;;;;;51.50;11.98;96690.28;6151948;29;19950;-74
2023/06/05 05:22:02;;;;;;;;;;;;;;;52.05;11.03;96685.28;6151647;29;20423;-73
2023/06/05 05:25:05;;;;;;;;;;;;;;;52.19;9.69;96683.91;6151707;29;20471;-73
2023/06/05 05:28:08;;;;;;;;;;;;;;;52.03;9.57;96676.41;6134315;29;20304;-74
2023/06/05 05:31:10;;;;;;;;;;;;;;;51.88;9.58;96685.78;6151358;28;20285;-73
2023/06/05 05:34:12;;;;;;;;;;;;;;;52.03;8.96;96676.41;6151485;29;19926;-73
2023/06/05 05:37:15;;;;;;;;;;;;;;;51.38;10.44;96674.41;6149920;29;19923;-72
2023/06/05 05:40:16;;;;;;;;;;;;;;;52.22;10.08;96672.72;6150477;29;19934;-73
2023/06/05 05:43:21;;;;;;;;;;;;;;;53.88;8.04;96675.69;6150856;29;19931;-73
2023/06/05 05:46:26;;;;;;;;;;;;;;;55.36;8.80;96684.75;6150281;29;19981;-73
2023/06/05 05:49:28;;;;;;;;;;;;;;;56.74;8.68;96687.25;6150129;29;19927;-73
2023/06/05 05:52:33;;;;;;;;;;;;;;;57.22;7.00;96687.53;6152147;28;19933;-73
2023/06/05 05:55:37;;;;;;;;;;;;;;;55.95;7.19;96682.47;6150485;28;19951;-72
2023/06/05 05:58:39;;;;;;;;;;;;;;;55.99;7.57;96677.63;6133486;29;20396;-73
2023/06/05 06:01:42;;;;;;;;;;;;;;;55.63;7.23;96676.75;6150052;29;20025;-72
2023/06/05 06:04:45;;;;;;;;;;;;;;;55.31;7.45;96676.69;6150173;29;19926;-74
2023/06/05 06:07:47;;;;;;;;;;;;;;;55.38;7.36;96671.06;6149937;29;19927;-72
2023/06/05 06:10:52;;;;;;;;;;;;;;;56.71;7.86;96671.94;6150231;29;19976;-72
2023/06/05 06:13:54;;;;;;;;;;;;;;;58.16;6.43;96673.63;6155631;29;19927;-73
2023/06/05 06:17:00;;;;;;;;;;;;;;;59.54;6.66;96678.97;6153401;29;19922;-73
2023/06/05 06:20:06;;;;;;;;;;;;;;;60.63;6.42;96681.66;6176583;28;19931;-73
2023/06/05 06:23:12;;;;;;;;;;;;;;;60.64;5.99;96677.56;6182583;28;19941;-72
2023/06/05 08:04:07;;;;;;;;;;;;;;;58.56;5.26;96606.84;7187719;23;19965;-73
2023/06/05 08:07:10;;;;;;;;;;;;;;;52.94;7.07;96587.50;6161029;28;19933;-74
2023/06/05 08:10:14;;;;;;;;;;;;;;;46.66;10.48;96599.22;6156296;28;19926;-74
2023/06/05 08:13:16;;;;;;;;;;;;;;;42.39;13.48;96601.53;6170882;28;19926;-74
2023/06/05 08:16:18;;;;;;;;;;;;;;;40.10;15.45;96589.75;6171288;28;19934;-73
2023/06/05 08:19:22;;;;;;;;;;;;;;;38.55;16.58;96591.50;6172180;28;19948;-74
2023/06/05 08:22:26;;;;;;;;;;;;;;;36.67;17.69;96585.44;6172353;28;20121;-73
2023/06/05 08:25:27;;;;;;;;;;;;;;;36.02;18.48;96579.50;6154531;28;19926;-72
2023/06/05 08:28:30;;;;;;;;;;;;;;;37.57;16.89;96593.03;6170390;28;20311;-74
2023/06/05 08:31:34;;;;;;;;;;;;;;;40.11;15.68;96585.88;6171906;28;19928;-73
2023/06/05 08:34:40;;;;;;;;;;;;;;;42.01;14.09;96591.84;6172368;28;19930;-72
2023/06/05 08:37:44;;;;;;;;;;;;;;;43.34;13.44;96597.03;6154296;28;20016;-72
2023/06/05 08:40:50;;;;;;;;;;;;;;;44.08;12.91;96591.69;6171739;28;19926;-73
2023/06/05 08:43:56;;;;;;;;;;;;;;;44.95;12.40;96594.53;6171562;28;19926;-72
2023/06/05 08:47:01;;;;;;;;;;;;;;;45.61;11.93;96593.41;6171794;28;19926;-73
2023/06/05 08:50:05;;;;;;;;;;;;;;;45.07;12.01;96584.69;6172189;28;19948;-72
2023/06/05 08:53:06;;;;;;;;;;;;;;;44.23;12.68;96586.81;6174966;28;20322;-73
2023/06/05 08:56:11;;;;;;;;;;;;;;;44.95;11.99;96591.75;6176058;28;19926;-73
2023/06/05 08:59:14;;;;;;;;;;;;;;;45.30;11.98;96599.22;6175998;28;19926;-72
2023/06/05 09:02:18;;;;;;;;;;;;;;;46.03;11.42;96599.94;6175795;28;20379;-73
2023/06/05 09:05:24;;;;;;;;;;;;;;;46.67;10.90;96598.09;6175793;28;19954;-74
2023/06/05 09:08:32;;;;;;;;;;;;;;;46.55;10.43;96598.81;6174886;28;20396;-72
2023/06/05 09:11:36;;;;;;;;;;;;;;;44.76;11.03;96591.28;6175744;28;20410;-73
2023/06/05 09:14:38;;;;;;;;;;;;;;;42.92;12.09;96586.19;6173774;28;20419;-74
2023/06/05 09:17:44;;;;;;;;;;;;;;;43.92;11.68;96579.38;6175796;28;20407;-73
2023/06/05 09:20:46;;;;;;;;;;;;;;;44.12;12.34;96594.63;6175530;28;20049;-72
2023/06/05 09:23:47;;;;;;;;;;;;;;;42.38;13.23;96588.84;6175629;28;20303;-73
2023/06/05 09:26:55;;;;;;;;;;;;;;;40.95;14.41;96586.03;6175668;28;19922;-74
2023/06/05 09:30:04;;;;;;;;;;;;;;;40.15;15.54;96573.97;6157374;28;20016;-73
2023/06/05 09:33:15;;;;;;;;;;;;;;;41.09;15.20;96574.25;6175115;28;19926;-74
2023/06/05 09:36:16;;;;;;;;;;;;;;;43.22;13.19;96584.59;6175258;28;19992;-74
2023/06/05 09:39:19;;;;;;;;;;;;;;;44.30;12.80;96584.34;6174923;28;19948;-73
2023/06/05 09:42:32;;;;;;;;;;;;;;;44.56;12.36;96592.72;6174974;28;19926;-73
2023/06/05 09:45:43;;;;;;;;;;;;;;;44.10;12.77;96591.34;6175131;28;19981;-74
2023/06/05 09:48:50;;;;;;;;;;;;;;;44.06;12.86;96585.63;6174895;28;19980;-74
2023/06/05 09:51:54;;;;;;;;;;;;;;;44.34;12.62;96590.91;6174759;28;19926;-73
2023/06/05 09:55:03;;;;;;;;;;;;;;;44.41;12.29;96585.69;6174650;28;19925;-74
2023/06/05 09:58:11;;;;;;;;;;;;;;;43.76;12.97;96576.22;6174257;28;19926;-73
2023/06/05 10:01:17;;;;;;;;;;;;;;;43.23;12.98;96575.19;6173622;28;19926;-72
2023/06/05 10:04:22;;;;;;;;;;;;;;;43.65;13.03;96574.88;6173956;28;19926;-73
2023/06/05 10:07:23;;;;;;;;;;;;;;;45.05;12.21;96590.59;6174153;28;20020;-73
2023/06/05 10:10:30;;;;;;;;;;;;;;;46.14;11.42;96594.81;6174661;28;19933;-72
2023/06/05 10:13:34;;;;;;;;;;;;;;;44.57;11.87;96588.81;6172937;28;19926;-73
2023/06/05 10:16:41;;;;;;;;;;;;;;;42.96;12.78;96575.31;6174302;28;19926;-72
2023/06/05 10:19:46;;;;;;;;;;;;;;;42.70;13.54;96580.63;6174344;28;19933;-73
2023/06/05 10:22:49;;;;;;;;;;;;;;;42.97;13.37;96565.84;6173791;28;20032;-73
2023/06/05 10:25:54;;;;;;;;;;;;;;;43.65;12.41;96569.34;6173810;28;19926;-72
2023/06/05 10:28:58;;;;;;;;;;;;;;;44.07;12.38;96561.50;6173855;28;19926;-72
2023/06/05 10:32:05;;;;;;;;;;;;;;;44.30;12.23;96562.97;6173182;28;20221;-72
2023/06/05 10:35:27;;;;;;;;;;;;;;;44.62;11.78;96565.63;6174236;28;20155;-74
2023/06/05 10:38:30;;;;;;;;;;;;;;;45.26;11.57;96569.31;6173334;28;20121;-73
2023/06/05 10:41:37;;;;;;;;;;;;;;;45.87;11.22;96563.53;6175076;28;20384;-74
2023/06/05 10:44:43;;;;;;;;;;;;;;;46.01;11.05;96568.06;6175002;28;19926;-73
2023/06/05 10:47:50;;;;;;;;;;;;;;;46.05;11.04;96563.47;6175443;28;19930;-73
2023/06/05 10:50:51;;;;;;;;;;;;;;;45.91;11.02;96564.50;6175570;28;19926;-73
2023/06/05 10:53:53;;;;;;;;;;;;;;;45.38;11.16;96551.16;6167702;28;19937;-74
2023/06/05 10:57:03;;;;;;;;;;;;;;;44.70;11.87;96553.69;6164966;28;19942;-72
2023/06/05 11:00:06;;;;;;;;;;;;;;;44.57;11.74;96542.47;6150877;28;19926;-72
2023/06/05 11:03:08;;;;;;;;;;;;;;;44.90;11.90;96535.56;6149574;28;19996;-73
2023/06/05 11:06:12;;;;;;;;;;;;;;;45.08;11.47;96541.91;6154916;28;19930;-71
2023/06/05 11:09:14;;;;;;;;;;;;;;;44.55;11.92;96549.47;6153546;28;19930;-71
2023/06/05 11:12:17;;;;;;;;;;;;;;;43.86;12.92;96536.31;6154201;28;20316;-67
2023/06/05 11:15:21;;;;;;;;;;;;;;;42.34;13.55;96543.56;6149395;28;19926;-68
2023/06/05 11:18:29;;;;;;;;;;;;;;;41.25;14.36;96535.03;6149570;28;19926;-70
2023/06/05 11:21:51;;;;;;;;;;;;;;;40.17;15.49;96535.91;6154993;28;20348;-67
2023/06/05 11:25:24;;;;;;;;;;;;;;;39.70;15.92;96532.09;6152007;28;19930;-66
2023/06/05 11:28:39;;;;;;;;;;;;;;;39.22;16.20;96537.59;6137877;28;19931;-66
2023/06/05 11:31:44;;;;;;;;;;;;;;;38.97;16.55;96533.16;6131533;28;20902;-67
2023/06/05 11:34:50;;;;;;;;;;;;;;;38.42;16.60;96532.53;6156776;28;20300;-67
2023/06/05 11:38:06;;;;;;;;;;;;;;;38.14;17.16;96536.81;6152539;28;20080;-66
2023/06/05 11:41:08;;;;;;;;;;;;;;;38.01;16.94;96531.94;6155203;28;20380;-66
2023/06/05 11:44:10;;;;;;;;;;;;;;;38.25;16.29;96532.88;6161516;28;20021;-66
2023/06/05 11:47:28;;;;;;;;;;;;;;;38.25;16.16;96526.56;6150562;28;19922;-66
2023/06/05 11:50:31;;;;;;;;;;;;;;;38.30;16.33;96521.84;6153435;28;19926;-66
2023/06/05 11:53:43;;;;;;;;;;;;;;;37.78;17.06;96527.91;6157571;28;19930;-66
2023/06/05 11:56:52;;;;;;;;;;;;;;;37.24;17.01;96523.97;6149609;28;19978;-66
2023/06/05 11:59:53;;;;;;;;;;;;;;;36.88;17.08;96518.50;6151066;28;19930;-65
2023/06/05 12:02:54;;;;;;;;;;;;;;;36.69;17.53;96521.03;6152016;28;20455;-66
2023/06/05 12:05:55;;;;;;;;;;;;;;;36.86;17.44;96518.00;6151211;28;19934;-66
2023/06/05 12:09:11;;;;;;;;;;;;;;;36.70;17.71;96524.59;6150932;28;20017;-67
2023/06/05 12:12:12;;;;;;;;;;;;;;;36.34;18.15;96521.78;6151396;28;19949;-67
2023/06/05 12:15:16;;;;;;;;;;;;;;;36.33;18.25;96525.63;6155119;28;19974;-67
2023/06/05 12:18:17;;;;;;;;;;;;;;;36.23;18.01;96520.13;6150946;28;20423;-66
2023/06/05 12:21:19;;;;;;;;;;;;;;;36.64;17.83;96521.03;6150792;28;19926;-68
2023/06/05 12:24:25;;;;;;;;;;;;;;;37.16;17.12;96521.78;6148504;28;20304;-66
2023/06/05 12:27:34;;;;;;;;;;;;;;;37.69;17.10;96514.78;6159831;28;20033;-67
2023/06/05 12:30:41;;;;;;;;;;;;;;;37.88;16.66;96520.44;6162621;28;19932;-68
2023/06/05 12:33:46;;;;;;;;;;;;;;;37.90;16.44;96523.72;6158095;28;19956;-66
2023/06/05 12:36:48;;;;;;;;;;;;;;;37.66;16.50;96522.75;6157758;28;20400;-66
2023/06/05 12:39:49;;;;;;;;;;;;;;;37.05;17.21;96519.06;6151737;28;19926;-66
2023/06/05 12:42:53;;;;;;;;;;;;;;;36.39;17.63;96513.59;6154242;28;20399;-67
2023/06/05 12:45:54;;;;;;;;;;;;;;;36.35;17.68;96512.47;6151376;28;20051;-66
2023/06/05 12:48:59;;;;;;;;;;;;;;;36.52;17.86;96510.31;6152414;28;19927;-66
2023/06/05 12:52:03;;;;;;;;;;;;;;;36.51;17.79;96505.91;6153005;28;19930;-67
2023/06/05 12:55:05;;;;;;;;;;;;;;;36.44;17.70;96505.38;6154014;28;19945;-68
2023/06/05 12:58:09;;;;;;;;;;;;;;;36.31;17.69;96508.66;6155388;28;19926;-68
2023/06/05 13:01:13;;;;;;;;;;;;;;;35.50;18.24;96504.53;6152394;28;19977;-67
2023/06/05 13:04:14;;;;;;;;;;;;;;;34.99;18.69;96502.38;6154666;28;19933;-67
2023/06/05 13:07:20;;;;;;;;;;;;;;;34.54;19.04;96491.91;6140465;28;19953;-67
2023/06/05 13:10:21;;;;;;;;;;;;;;;34.35;18.89;96495.03;6157389;28;19926;-67
2023/06/05 13:13:25;;;;;;;;;;;;;;;34.38;19.00;96491.78;6160839;28;20399;-67
2023/06/05 13:16:28;;;;;;;;;;;;;;;34.46;19.01;96486.94;6162081;28;19937;-66
2023/06/05 13:19:31;;;;;;;;;;;;;;;34.29;19.18;96487.88;6155088;28;19926;-67
2023/06/05 13:22:32;;;;;;;;;;;;;;;34.26;19.24;96493.88;6157231;28;20640;-68
2023/06/05 13:25:36;;;;;;;;;;;;;;;34.28;19.04;96507.25;6154277;28;19927;-67
2023/06/05 13:28:37;;;;;;;;;;;;;;;34.38;19.16;96491.78;6159476;28;19926;-66
2023/06/05 13:31:41;;;;;;;;;;;;;;;34.39;19.73;96493.41;6159961;28;19930;-66
2023/06/05 13:34:46;;;;;;;;;;;;;;;33.90;19.93;96503.59;6154639;28;19926;-65
2023/06/05 13:37:54;;;;;;;;;;;;;;;33.68;20.11;96495.44;6153764;28;20344;-67
2023/06/05 13:40:56;;;;;;;;;;;;;;;33.64;20.27;96497.03;6141040;28;19938;-71
2023/06/05 13:43:57;;;;;;;;;;;;;;;33.63;20.52;96495.38;6166193;28;19926;-67
2023/06/05 13:47:03;;;;;;;;;;;;;;;33.03;20.64;96497.88;6149877;28;20025;-69
2023/06/05 13:50:08;;;;;;;;;;;;;;;32.74;21.34;96497.16;6150841;28;20459;-68
2023/06/05 13:53:11;;;;;;;;;;;;;;;32.75;21.16;96500.69;6157468;28;19926;-66
2023/06/05 13:56:14;;;;;;;;;;;;;;;32.67;21.18;96510.13;6150320;28;20282;-67
2023/06/05 13:59:16;;;;;;;;;;;;;;;32.22;21.82;96474.78;6158518;28;19926;-66
2023/06/05 14:02:21;;;;;;;;;;;;;;;32.31;22.18;96503.25;6169684;28;20451;-68
2023/06/05 14:05:25;;;;;;;;;;;;;;;32.06;22.74;96509.06;6160875;28;19926;-67
2023/06/05 14:08:27;;;;;;;;;;;;;;;32.02;22.75;96511.47;6148862;28;20419;-68
2023/06/05 14:11:31;;;;;;;;;;;;;;;31.82;22.74;96502.88;6160494;28;20077;-65
2023/06/05 14:14:32;;;;;;;;;;;;;;;31.66;23.14;96504.50;6155142;28;20281;-66
2023/06/05 14:17:35;;;;;;;;;;;;;;;31.64;23.67;96510.16;6158862;28;20077;-66
2023/06/05 14:20:39;;;;;;;;;;;;;;;31.60;23.23;96509.00;6132339;28;19926;-66
2023/06/05 14:23:42;;;;;;;;;;;;;;;31.42;23.34;96504.56;6149199;28;20408;-66
2023/06/05 14:26:43;;;;;;;;;;;;;;;31.42;23.74;96509.16;6156487;28;19927;-64
2023/06/05 14:29:44;;;;;;;;;;;;;;;31.33;23.91;96506.78;6151939;28;20013;-65
2023/06/05 14:32:46;;;;;;;;;;;;;;;31.37;24.13;96511.81;6157182;28;19926;-65
2023/06/05 14:35:49;;;;;;;;;;;;;;;31.28;23.77;96509.41;6155494;28;19932;-64
2023/06/05 14:38:50;;;;;;;;;;;;;;;31.26;23.89;96499.84;6150524;28;19934;-65
2023/06/05 14:41:51;;;;;;;;;;;;;;;31.24;23.86;96507.41;6150738;28;19961;-64
2023/06/05 14:44:57;;;;;;;;;;;;;;;31.08;24.28;96515.25;6154309;28;20057;-64
2023/06/05 14:48:03;;;;;;;;;;;;;;;30.97;24.97;96512.50;6161985;28;19926;-65
2023/06/05 14:51:07;;;;;;;;;;;;;;;30.75;24.99;96515.00;6162973;28;20384;-66
2023/06/05 14:54:12;;;;;;;;;;;;;;;30.82;25.39;96521.97;6150691;28;19926;-65
2023/06/05 14:57:13;;;;;;;;;;;;;;;30.46;25.37;96519.44;6156981;28;19926;-64
2023/06/05 15:00:14;;;;;;;;;;;;;;;30.39;26.09;96523.09;6156796;28;19932;-65
2023/06/05 15:03:16;;;;;;;;;;;;;;;30.37;26.55;96517.06;6154552;28;19949;-65
2023/06/05 15:06:17;;;;;;;;;;;;;;;29.99;27.03;96523.69;6154938;28;20444;-65
2023/06/05 15:09:20;;;;;;;;;;;;;;;30.31;26.85;96531.56;6163468;28;19927;-65
2023/06/05 15:12:21;;;;;;;;;;;;;;;30.18;26.37;96527.16;6148942;28;20080;-65
2023/06/05 15:15:25;;;;;;;;;;;;;;;30.02;26.72;96535.13;6166592;28;19926;-65
2023/06/05 15:18:30;;;;;;;;;;;;;;;29.82;26.36;96528.09;6165743;28;19923;-65
2023/06/05 15:21:31;;;;;;;;;;;;;;;29.43;26.96;96526.69;6151893;28;19973;-64
2023/06/05 15:24:33;;;;;;;;;;;;;;;29.36;26.99;96529.50;6154414;28;19922;-66
2023/06/05 15:27:37;;;;;;;;;;;;;;;29.18;27.52;96527.59;6158322;28;19941;-64
2023/06/05 15:30:38;;;;;;;;;;;;;;;29.01;27.86;96532.75;6156344;28;19926;-65
2023/06/05 15:33:40;;;;;;;;;;;;;;;28.93;29.31;96552.03;6157368;28;19965;-67
2023/06/05 15:36:41;;;;;;;;;;;;;;;28.58;30.56;96549.81;6154742;28;20447;-65
2023/06/05 15:39:45;;;;;;;;;;;;;;;28.50;31.77;96558.22;6156694;28;19926;-65
2023/06/05 15:43:05;;;;;;;;;;;;;;;28.26;32.03;96561.72;6147583;28;20013;-65
2023/06/05 15:46:07;;;;;;;;;;;;;;;28.25;32.88;96565.44;6158657;28;19926;-65
2023/06/05 15:49:09;;;;;;;;;;;;;;;28.01;32.98;96570.59;6159913;28;19933;-66
2023/06/05 15:52:10;;;;;;;;;;;;;;;27.70;33.09;96563.25;6147230;28;19926;-64
2023/06/05 15:55:13;;;;;;;;;;;;;;;27.72;34.25;96569.28;6126053;29;19927;-65
2023/06/05 15:58:18;;;;;;;;;;;;;;;27.50;34.59;96571.44;6129817;29;20655;-64
2023/06/05 16:01:19;;;;;;;;;;;;;;;27.34;34.58;96577.31;6142666;28;19926;-65
2023/06/05 16:04:20;;;;;;;;;;;;;;;27.22;35.11;96575.25;6141372;29;19950;-64
2023/06/05 16:07:24;;;;;;;;;;;;;;;27.05;35.33;96577.53;6130191;29;20405;-65
2023/06/05 16:10:27;;;;;;;;;;;;;;;27.25;36.44;96582.94;6139514;29;19926;-64
2023/06/05 16:13:28;;;;;;;;;;;;;;;26.90;36.40;96589.63;6129256;29;19934;-68
2023/06/05 16:16:29;;;;;;;;;;;;;;;26.74;37.32;96597.09;6139643;29;19927;-66
2023/06/05 16:19:31;;;;;;;;;;;;;;;26.58;38.23;96592.09;6145700;29;20097;-65
2023/06/05 16:22:36;;;;;;;;;;;;;;;26.34;37.73;96602.44;6140974;28;19970;-64
2023/06/05 16:25:37;;;;;;;;;;;;;;;26.26;38.43;96593.72;6126715;29;19922;-65
2023/06/05 16:28:38;;;;;;;;;;;;;;;26.26;39.57;96605.31;6144874;29;20070;-65
2023/06/05 16:31:39;;;;;;;;;;;;;;;26.14;39.81;96604.28;6133082;29;20254;-65
2023/06/05 16:34:44;;;;;;;;;;;;;;;25.91;39.60;96608.16;6146824;29;19949;-65
2023/06/05 16:37:47;;;;;;;;;;;;;;;26.01;39.74;96606.94;6145162;29;20397;-65
2023/06/05 16:40:53;;;;;;;;;;;;;;;25.74;40.28;96618.44;6128863;28;19983;-65
2023/06/05 16:43:55;;;;;;;;;;;;;;;25.48;40.08;96624.53;6140158;29;19931;-65
2023/06/05 16:46:59;;;;;;;;;;;;;;;25.45;40.19;96619.53;6132355;29;19927;-65
2023/06/05 16:50:00;;;;;;;;;;;;;;;25.36;40.52;96614.50;6142908;28;19931;-65
2023/06/05 16:53:04;;;;;;;;;;;;;;;25.31;40.05;96625.88;6125828;29;19927;-65
2023/06/05 16:56:08;;;;;;;;;;;;;;;25.15;40.25;96626.19;6124754;29;19934;-65
2023/06/05 16:59:12;;;;;;;;;;;;;;;25.06;39.85;96636.25;6136554;29;19934;-63
2023/06/05 17:02:13;;;;;;;;;;;;;;;25.03;40.23;96626.72;6128037;29;20021;-64
2023/06/05 17:05:15;;;;;;;;;;;;;;;25.06;40.40;96631.69;6127162;29;19930;-65
2023/06/05 17:08:18;;;;;;;;;;;;;;;25.08;40.83;96637.72;6142983;28;19981;-66
2023/06/05 17:11:20;;;;;;;;;;;;;;;24.95;40.53;96637.63;6138583;28;19933;-63
2023/06/05 17:14:21;;;;;;;;;;;;;;;25.10;40.73;96646.41;6142917;29;19926;-63
2023/06/05 17:17:25;;;;;;;;;;;;;;;25.04;40.79;96633.75;6147144;28;19927;-65
2023/06/05 17:20:26;;;;;;;;;;;;;;;24.89;40.96;96641.09;6142982;29;20316;-62
2023/06/05 17:23:28;;;;;;;;;;;;;;;24.97;41.29;96632.88;6150029;28;19945;-64
2023/06/05 17:26:29;;;;;;;;;;;;;;;24.81;41.52;96644.75;6150020;29;19926;-63
2023/06/05 17:29:30;;;;;;;;;;;;;;;24.82;41.47;96641.03;6147275;29;19926;-64
2023/06/05 17:32:31;;;;;;;;;;;;;;;24.52;42.14;96642.22;6150455;29;19926;-63
2023/06/05 17:35:32;;;;;;;;;;;;;;;24.29;42.07;96639.66;6148926;29;19926;-65
2023/06/05 17:38:38;;;;;;;;;;;;;;;24.39;42.79;96642.88;6143923;28;19922;-63